createdAt,value
2017-09-20T14:53:11.077Z,11236
2017-09-20T14:53:24.446Z,11224
2017-09-20T14:53:37.818Z,11140
2017-09-20T14:53:50.681Z,11196
2017-09-20T14:54:03.517Z,11176
2017-09-20T14:54:16.873Z,11176
2017-09-20T14:54:30.708Z,11204
2017-09-20T14:54:44.291Z,11236
2017-09-20T14:54:57.126Z,11324
2017-09-20T14:55:10.482Z,11280
2017-09-20T14:55:23.880Z,11380
2017-09-20T14:55:36.717Z,11348
2017-09-20T14:55:49.543Z,11400
2017-09-20T14:56:02.379Z,11420
2017-09-20T14:56:14.779Z,11436
2017-09-20T14:56:28.178Z,11396
2017-09-20T14:56:41.601Z,11284
2017-09-20T14:56:55.025Z,11328
2017-09-20T14:57:07.327Z,11440
2017-09-20T14:57:20.131Z,11464
2017-09-20T14:57:33.531Z,11496
2017-09-20T14:57:45.875Z,11452
2017-09-20T14:57:59.226Z,11416
2017-09-20T14:58:12.031Z,11516
2017-09-20T14:58:24.361Z,11576
2017-09-20T14:58:36.680Z,11572
2017-09-20T14:58:49.559Z,11572
2017-09-20T14:59:02.935Z,11548
2017-09-20T14:59:15.261Z,11512
2017-09-20T14:59:28.151Z,11468
2017-09-20T14:59:40.973Z,11488
2017-09-20T14:59:54.375Z,11476
2017-09-20T15:00:07.773Z,11412
2017-09-20T15:00:20.634Z,11444
2017-09-20T15:00:34.057Z,11428
2017-09-20T15:00:46.366Z,11416
2017-09-20T15:00:59.703Z,11416
2017-09-20T15:01:12.586Z,11412
2017-09-20T15:01:25.977Z,11380
2017-09-20T15:01:38.784Z,11364
2017-09-20T15:01:51.650Z,11356
2017-09-20T15:02:05.019Z,11324
2017-09-20T15:02:17.266Z,11316
2017-09-20T15:02:29.638Z,11328
2017-09-20T15:02:42.505Z,11316
2017-09-20T15:02:55.875Z,11300
2017-09-20T15:03:09.290Z,11340
2017-09-20T15:03:22.099Z,11332
2017-09-20T15:03:35.450Z,11296
2017-09-20T15:03:48.810Z,11280
2017-09-20T15:04:02.193Z,11260
2017-09-20T15:04:14.538Z,11236
2017-09-20T15:04:27.947Z,11200
2017-09-20T15:04:40.266Z,11180
2017-09-20T15:04:52.569Z,11192
2017-09-20T15:05:05.423Z,11152
2017-09-20T15:05:18.847Z,11148
2017-09-20T15:05:32.298Z,11120
2017-09-20T15:05:45.132Z,11192
2017-09-20T15:05:57.972Z,11132
2017-09-20T15:06:10.819Z,11132
2017-09-20T15:06:24.240Z,11120
2017-09-20T15:06:37.108Z,11120
2017-09-20T15:06:50.001Z,11148
2017-09-20T15:07:03.423Z,11144
2017-09-20T15:07:16.278Z,11200
2017-09-20T15:07:29.665Z,11104
2017-09-20T15:07:41.993Z,11160
2017-09-20T15:07:54.867Z,11084
2017-09-20T15:08:07.694Z,11088
2017-09-20T15:08:20.025Z,10948
2017-09-20T15:08:32.878Z,10896
2017-09-20T15:08:46.252Z,10956
2017-09-20T15:08:59.095Z,10920
2017-09-20T15:09:11.487Z,10956
2017-09-20T15:09:24.337Z,11012
2017-09-20T15:09:37.204Z,11032
2017-09-20T15:09:50.148Z,10988
2017-09-20T15:10:03.494Z,11024
2017-09-20T15:10:15.306Z,11064
2017-09-20T15:10:28.738Z,11100
2017-09-20T15:10:42.230Z,11096
2017-09-20T15:10:55.577Z,11104
2017-09-20T15:11:08.964Z,11092
2017-09-20T15:11:21.361Z,11088
2017-09-20T15:11:34.713Z,11084
2017-09-20T15:11:47.031Z,11084
2017-09-20T15:12:00.376Z,11092
2017-09-20T15:12:11.624Z,11100
2017-09-20T15:12:25.063Z,11112
2017-09-20T15:12:38.437Z,11108
2017-09-20T15:12:50.213Z,11116
2017-09-20T15:13:03.085Z,11076
2017-09-20T15:13:15.930Z,11080
2017-09-20T15:13:28.204Z,11080
2017-09-20T15:13:41.560Z,11100
2017-09-20T15:13:53.881Z,11096
2017-09-20T15:14:05.659Z,11096
2017-09-20T15:14:18.529Z,11068
2017-09-20T15:14:31.918Z,11084
2017-09-20T15:14:45.319Z,11084
2017-09-20T15:14:58.647Z,11088
2017-09-20T15:15:11.154Z,11152
2017-09-20T15:15:24.474Z,11112
2017-09-20T15:15:36.787Z,11100
2017-09-20T15:15:50.224Z,11100
2017-09-20T15:16:03.598Z,11164
2017-09-20T15:16:15.367Z,11116
2017-09-20T15:16:28.725Z,11148
2017-09-20T15:16:42.093Z,11252
2017-09-20T15:16:55.569Z,11252
2017-09-20T15:17:09.803Z,11292
2017-09-20T15:17:23.181Z,11368
2017-09-20T15:17:36.030Z,11436
2017-09-20T15:17:48.911Z,11520
2017-09-20T15:18:01.791Z,11528
2017-09-20T15:18:14.638Z,11612
2017-09-20T15:18:26.960Z,11528
2017-09-20T15:18:39.798Z,11500
2017-09-20T15:18:53.141Z,11500
2017-09-20T15:19:05.979Z,11480
2017-09-20T15:19:18.273Z,11408
2017-09-20T15:19:31.736Z,11400
2017-09-20T15:19:44.589Z,11388
2017-09-20T15:19:57.414Z,11368
2017-09-20T15:20:10.784Z,11404
2017-09-20T15:20:23.703Z,11332
2017-09-20T15:20:36.043Z,11268
2017-09-20T15:20:49.643Z,11272
2017-09-20T15:21:02.489Z,11204
2017-09-20T15:21:15.316Z,11116
2017-09-20T15:21:28.716Z,11132
2017-09-20T15:21:42.063Z,11064
2017-09-20T15:21:54.929Z,11100
2017-09-20T15:22:08.358Z,11056
2017-09-20T15:22:21.180Z,11024
2017-09-20T15:22:34.579Z,11096
2017-09-20T15:22:47.464Z,11112
2017-09-20T15:23:00.281Z,11148
2017-09-20T15:23:13.636Z,11076
2017-09-20T15:23:27.004Z,11032
2017-09-20T15:23:40.391Z,11092
2017-09-20T15:23:52.704Z,11064
2017-09-20T15:24:06.124Z,11076
2017-09-20T15:24:18.937Z,11116
2017-09-20T15:24:31.825Z,11080
2017-09-20T15:24:44.112Z,11068
2017-09-20T15:24:57.486Z,11080
2017-09-20T15:25:10.873Z,11128
2017-09-20T15:25:24.251Z,11180
2017-09-20T15:25:37.692Z,11200
2017-09-20T15:25:51.262Z,11200
2017-09-20T15:26:04.609Z,11172
2017-09-20T15:26:18.031Z,11164
2017-09-20T15:26:31.432Z,11176
2017-09-20T15:26:44.328Z,11140
2017-09-20T15:26:57.765Z,11164
2017-09-20T15:27:10.582Z,11200
2017-09-20T15:27:23.457Z,11192
2017-09-20T15:27:36.317Z,11200
2017-09-20T15:27:49.739Z,11196
2017-09-20T15:28:03.163Z,11156
2017-09-20T15:28:15.498Z,11140
2017-09-20T15:28:28.845Z,11084
2017-09-20T15:28:41.715Z,11108
2017-09-20T15:28:54.511Z,11076
2017-09-20T15:29:06.840Z,11112
2017-09-20T15:29:20.202Z,11120
2017-09-20T15:29:33.024Z,11164
2017-09-20T15:29:44.858Z,11132
2017-09-20T15:29:57.166Z,11144
2017-09-20T15:30:10.015Z,11112
2017-09-20T15:30:23.388Z,11144
2017-09-20T15:30:36.772Z,11112
2017-09-20T15:30:50.159Z,11064
2017-09-20T15:31:03.034Z,11012
2017-09-20T15:31:16.377Z,11060
2017-09-20T15:31:29.766Z,11020
2017-09-20T15:31:43.123Z,11036
2017-09-20T15:31:55.958Z,11048
2017-09-20T15:32:08.273Z,11088
2017-09-20T15:32:20.592Z,11120
2017-09-20T15:32:34.021Z,11128
2017-09-20T15:32:46.863Z,11136
2017-09-20T15:33:00.260Z,11124
2017-09-20T15:33:13.606Z,11220
2017-09-20T15:33:26.964Z,11144
2017-09-20T15:33:39.827Z,11232
2017-09-20T15:33:53.202Z,11160
2017-09-20T15:34:06.562Z,11216
2017-09-20T15:34:19.456Z,11260
2017-09-20T15:34:31.776Z,11268
2017-09-20T15:34:44.605Z,11260
2017-09-20T15:34:57.463Z,11260
2017-09-20T15:35:10.359Z,11272
2017-09-20T15:35:23.722Z,11300
2017-09-20T15:35:36.067Z,11368
2017-09-20T15:35:48.515Z,11388
2017-09-20T15:36:01.384Z,11432
2017-09-20T15:36:14.217Z,11304
2017-09-20T15:36:27.039Z,11460
2017-09-20T15:36:40.399Z,11392
2017-09-20T15:36:53.741Z,11328
2017-09-20T15:37:06.557Z,11312
2017-09-20T15:37:19.451Z,11248
2017-09-20T15:37:32.864Z,11288
2017-09-20T15:37:45.714Z,11232
2017-09-20T15:37:58.562Z,11212
2017-09-20T15:38:10.356Z,11196
2017-09-20T15:38:23.705Z,11152
2017-09-20T15:38:36.550Z,11220
2017-09-20T15:38:49.385Z,11236
2017-09-20T15:39:02.721Z,11104
2017-09-20T15:39:15.001Z,11060
2017-09-20T15:39:28.384Z,11124
2017-09-20T15:39:40.694Z,11112
2017-09-20T15:39:54.131Z,11096
2017-09-20T15:40:06.475Z,10992
2017-09-20T15:40:19.361Z,10976
2017-09-20T15:40:32.735Z,10888
2017-09-20T15:40:45.564Z,10780
2017-09-20T15:40:58.409Z,10736
2017-09-20T15:41:11.817Z,10724
2017-09-20T15:41:24.679Z,10672
2017-09-20T15:41:37.596Z,10632
2017-09-20T15:41:50.908Z,10624
2017-09-20T15:42:04.289Z,10628
2017-09-20T15:42:17.186Z,10584
2017-09-20T15:42:30.593Z,10612
2017-09-20T15:42:43.966Z,10640
2017-09-20T15:42:56.835Z,10752
2017-09-20T15:43:09.708Z,10796
2017-09-20T15:43:22.032Z,10780
2017-09-20T15:43:35.386Z,10852
2017-09-20T15:43:47.690Z,10888
2017-09-20T15:44:00.545Z,10916
2017-09-20T15:44:12.883Z,10920
2017-09-20T15:44:25.704Z,11016
2017-09-20T15:44:39.061Z,11012
2017-09-20T15:44:51.898Z,11096
2017-09-20T15:45:05.244Z,11108
2017-09-20T15:45:18.114Z,11136
2017-09-20T15:45:31.493Z,11144
2017-09-20T15:45:44.888Z,11176
2017-09-20T15:45:58.311Z,11164
2017-09-20T15:46:11.192Z,11104
2017-09-20T15:46:24.054Z,11132
2017-09-20T15:46:36.915Z,11172
2017-09-20T15:46:48.764Z,11180
2017-09-20T15:47:02.128Z,11192
2017-09-20T15:47:15.012Z,11208
2017-09-20T15:47:28.364Z,11160
2017-09-20T15:47:41.732Z,11116
2017-09-20T15:47:54.608Z,11224
2017-09-20T15:48:06.889Z,11092
2017-09-20T15:48:19.257Z,11132
2017-09-20T15:48:32.105Z,11128
2017-09-20T15:48:44.450Z,11132
2017-09-20T15:48:56.766Z,11096
2017-09-20T15:49:10.111Z,11248
2017-09-20T15:49:23.507Z,11208
2017-09-20T15:49:36.897Z,11072
2017-09-20T15:49:49.255Z,11168
2017-09-20T15:50:02.601Z,11100
2017-09-20T15:50:15.973Z,11080
2017-09-20T15:50:29.336Z,10992
2017-09-20T15:50:42.246Z,10968
2017-09-20T15:50:55.691Z,10944
2017-09-20T15:51:09.078Z,10924
2017-09-20T15:51:22.462Z,10900
2017-09-20T15:51:35.821Z,10944
2017-09-20T15:51:48.694Z,10924
2017-09-20T15:52:01.491Z,10980
2017-09-20T15:52:14.908Z,10932
2017-09-20T15:52:28.351Z,10916
2017-09-20T15:52:41.773Z,10944
2017-09-20T15:52:54.581Z,10972
2017-09-20T15:53:07.419Z,10944
2017-09-20T15:53:20.780Z,10948
2017-09-20T15:53:33.610Z,10944
2017-09-20T15:53:46.448Z,10972
2017-09-20T15:53:58.774Z,10940
2017-09-20T15:54:12.187Z,10928
2017-09-20T15:54:25.034Z,10904
2017-09-20T15:54:38.421Z,10900
2017-09-20T15:54:51.875Z,10896
2017-09-20T15:55:04.785Z,10860
2017-09-20T15:55:18.132Z,10852
2017-09-20T15:55:31.490Z,10800
2017-09-20T15:55:44.860Z,10784
2017-09-20T15:55:57.733Z,10728
2017-09-20T15:56:11.172Z,10784
2017-09-20T15:56:23.486Z,10708
2017-09-20T15:56:36.893Z,10764
2017-09-20T15:56:50.266Z,10716
2017-09-20T15:57:03.694Z,10668
2017-09-20T15:57:17.002Z,10648
2017-09-20T15:57:29.851Z,10672
2017-09-20T15:57:42.194Z,10676
2017-09-20T15:57:54.538Z,10696
2017-09-20T15:58:07.327Z,10660
2017-09-20T15:58:20.898Z,10608
2017-09-20T15:58:34.263Z,10572
2017-09-20T15:58:47.170Z,10584
2017-09-20T15:59:00.588Z,10580
2017-09-20T15:59:12.931Z,10608
2017-09-20T15:59:26.326Z,10660
2017-09-20T15:59:38.706Z,10668
2017-09-20T15:59:51.591Z,10672
2017-09-20T16:00:04.461Z,10672
2017-09-20T16:00:17.830Z,10720
2017-09-20T16:00:30.727Z,10688
2017-09-20T16:00:44.082Z,10696
2017-09-20T16:00:56.931Z,10772
2017-09-20T16:01:09.840Z,10660
2017-09-20T16:01:23.281Z,10720
2017-09-20T16:01:36.715Z,10716
2017-09-20T16:01:50.099Z,10732
2017-09-20T16:02:02.935Z,10752
2017-09-20T16:02:16.324Z,10820
2017-09-20T16:02:28.610Z,10740
2017-09-20T16:02:41.964Z,10760
2017-09-20T16:02:54.798Z,10780
2017-09-20T16:03:07.687Z,10792
2017-09-20T16:03:20.554Z,10832
2017-09-20T16:03:33.392Z,10788
2017-09-20T16:03:46.821Z,10832
2017-09-20T16:03:59.668Z,10864
2017-09-20T16:04:13.050Z,10864
2017-09-20T16:04:26.363Z,10872
2017-09-20T16:04:38.729Z,10912
2017-09-20T16:04:52.147Z,10896
2017-09-20T16:05:04.991Z,10848
2017-09-20T16:05:18.339Z,10828
2017-09-20T16:05:31.762Z,10816
2017-09-20T16:05:44.566Z,10864
2017-09-20T16:05:56.890Z,10800
2017-09-20T16:06:09.364Z,10744
2017-09-20T16:06:22.269Z,10736
2017-09-20T16:06:35.655Z,10740
2017-09-20T16:06:48.473Z,10792
2017-09-20T16:07:01.303Z,10660
2017-09-20T16:07:14.706Z,10688
2017-09-20T16:07:27.069Z,10708
2017-09-20T16:07:40.443Z,10760
2017-09-20T16:07:53.294Z,10732
2017-09-20T16:08:06.151Z,10764
2017-09-20T16:08:18.993Z,10728
2017-09-20T16:08:31.835Z,10668
2017-09-20T16:08:44.690Z,10676
2017-09-20T16:08:57.536Z,10660
2017-09-20T16:09:08.774Z,10680
2017-09-20T16:09:22.162Z,10612
2017-09-20T16:09:35.023Z,10584
2017-09-20T16:09:48.374Z,10596
2017-09-20T16:10:01.213Z,10620
2017-09-20T16:10:14.021Z,10644
2017-09-20T16:10:27.434Z,10664
2017-09-20T16:10:39.734Z,10636
2017-09-20T16:10:53.144Z,10620
2017-09-20T16:11:05.484Z,10600
2017-09-20T16:11:18.370Z,10620
2017-09-20T16:11:31.798Z,10580
2017-09-20T16:11:45.180Z,10612
2017-09-20T16:11:57.501Z,10596
2017-09-20T16:12:09.303Z,10584
2017-09-20T16:12:21.648Z,10652
2017-09-20T16:12:34.485Z,10620
2017-09-20T16:12:47.837Z,10672
2017-09-20T16:13:01.581Z,10672
2017-09-20T16:13:14.365Z,10684
2017-09-20T16:13:27.954Z,10756
2017-09-20T16:13:40.224Z,10856
2017-09-20T16:13:53.121Z,10888
2017-09-20T16:14:05.964Z,10864
2017-09-20T16:14:18.318Z,10896
2017-09-20T16:14:30.631Z,10932
2017-09-20T16:14:43.938Z,10980
2017-09-20T16:14:57.307Z,10928
2017-09-20T16:15:12.075Z,11044
2017-09-20T16:15:24.977Z,11068
2017-09-20T16:15:37.847Z,11048
2017-09-20T16:15:50.688Z,11136
2017-09-20T16:16:04.054Z,11100
2017-09-20T16:16:16.880Z,11104
2017-09-20T16:16:29.196Z,11072
2017-09-20T16:16:42.543Z,11016
2017-09-20T16:16:54.897Z,11012
2017-09-20T16:17:08.288Z,10976
2017-09-20T16:17:21.170Z,11004
2017-09-20T16:17:34.465Z,10948
2017-09-20T16:17:47.788Z,10960
2017-09-20T16:18:00.605Z,10852
2017-09-20T16:18:14.004Z,10840
2017-09-20T16:18:25.757Z,10860
2017-09-20T16:18:38.265Z,10772
2017-09-20T16:18:51.163Z,10792
2017-09-20T16:19:04.010Z,10756
2017-09-20T16:19:16.828Z,10732
2017-09-20T16:19:30.233Z,10692
2017-09-20T16:19:43.649Z,10628
2017-09-20T16:19:56.586Z,10604
2017-09-20T16:20:09.972Z,10584
2017-09-20T16:20:22.857Z,10604
2017-09-20T16:20:36.175Z,10572
2017-09-20T16:20:49.021Z,10640
2017-09-20T16:21:02.091Z,10556
2017-09-20T16:21:15.543Z,10500
2017-09-20T16:21:28.900Z,10516
2017-09-20T16:21:41.756Z,10484
2017-09-20T16:21:55.107Z,10452
2017-09-20T16:22:07.949Z,10380
2017-09-20T16:22:19.763Z,10356
2017-09-20T16:22:32.595Z,10356
2017-09-20T16:22:46.005Z,10320
2017-09-20T16:22:59.339Z,10212
2017-09-20T16:23:12.770Z,10236
2017-09-20T16:23:26.169Z,10180
2017-09-20T16:23:39.536Z,10132
2017-09-20T16:23:52.945Z,10176
2017-09-20T16:24:05.816Z,10108
2017-09-20T16:24:18.681Z,10136
2017-09-20T16:24:32.070Z,10108
2017-09-20T16:24:45.529Z,10124
2017-09-20T16:24:58.391Z,10140
2017-09-20T16:25:11.759Z,10244
2017-09-20T16:25:24.057Z,10380
2017-09-20T16:25:37.470Z,10412
2017-09-20T16:25:50.817Z,10472
2017-09-20T16:26:04.154Z,10456
2017-09-20T16:26:17.545Z,10460
2017-09-20T16:26:30.866Z,10512
2017-09-20T16:26:44.277Z,10464
2017-09-20T16:26:57.156Z,10456
2017-09-20T16:27:10.524Z,10436
2017-09-20T16:27:23.928Z,10424
2017-09-20T16:27:36.769Z,10428
2017-09-20T16:27:49.622Z,10404
2017-09-20T16:28:03.017Z,10492
2017-09-20T16:28:16.433Z,10328
2017-09-20T16:28:28.832Z,10392
2017-09-20T16:28:41.681Z,10428
2017-09-20T16:28:55.147Z,10440
2017-09-20T16:29:08.613Z,10376
2017-09-20T16:29:21.945Z,10440
2017-09-20T16:29:35.342Z,10432
2017-09-20T16:29:48.211Z,10392
2017-09-20T16:30:01.609Z,10384
2017-09-20T16:30:13.960Z,10448
2017-09-20T16:30:26.291Z,10452
2017-09-20T16:30:38.080Z,10412
2017-09-20T16:30:51.358Z,10400
2017-09-20T16:31:04.739Z,10432
2017-09-20T16:31:16.996Z,10376
2017-09-20T16:31:29.365Z,10364
2017-09-20T16:31:42.212Z,10408
2017-09-20T16:31:55.525Z,10368
2017-09-20T16:32:07.275Z,10392
2017-09-20T16:32:20.667Z,10372
2017-09-20T16:32:34.065Z,10356
2017-09-20T16:32:46.896Z,10308
2017-09-20T16:33:00.270Z,10324
2017-09-20T16:33:13.681Z,10396
2017-09-20T16:33:26.005Z,10360
2017-09-20T16:33:39.420Z,10380
2017-09-20T16:33:52.842Z,10420
2017-09-20T16:34:05.696Z,10384
2017-09-20T16:34:18.581Z,10316
2017-09-20T16:34:31.978Z,10340
2017-09-20T16:34:45.404Z,10328
2017-09-20T16:34:58.273Z,10376
2017-09-20T16:35:11.699Z,10368
2017-09-20T16:35:25.075Z,10348
2017-09-20T16:35:37.934Z,10328
2017-09-20T16:35:51.290Z,10300
2017-09-20T16:36:04.678Z,10340
2017-09-20T16:36:17.295Z,10352
2017-09-20T16:36:30.168Z,10348
2017-09-20T16:36:43.554Z,10308
2017-09-20T16:36:56.947Z,10336
2017-09-20T16:37:10.377Z,10288
2017-09-20T16:37:23.226Z,10276
2017-09-20T16:37:36.612Z,10292
2017-09-20T16:37:49.481Z,10332
2017-09-20T16:38:02.828Z,10352
2017-09-20T16:38:15.163Z,10392
2017-09-20T16:38:28.571Z,10392
2017-09-20T16:38:40.905Z,10328
2017-09-20T16:38:54.289Z,10324
2017-09-20T16:39:07.636Z,10268
2017-09-20T16:39:20.962Z,10264
2017-09-20T16:39:33.781Z,10292
2017-09-20T16:39:47.128Z,10284
2017-09-20T16:39:59.978Z,10284
2017-09-20T16:40:12.329Z,10212
2017-09-20T16:40:25.746Z,10256
2017-09-20T16:40:39.135Z,10288
2017-09-20T16:40:52.018Z,10256
2017-09-20T16:41:04.878Z,10200
2017-09-20T16:41:17.343Z,10152
2017-09-20T16:41:29.618Z,10152
2017-09-20T16:41:42.430Z,10120
2017-09-20T16:41:55.777Z,10124
2017-09-20T16:42:08.129Z,10124
2017-09-20T16:42:21.542Z,10144
2017-09-20T16:42:34.385Z,10140
2017-09-20T16:42:46.751Z,10172
2017-09-20T16:43:00.239Z,10172
2017-09-20T16:43:13.631Z,10148
2017-09-20T16:43:26.465Z,10112
2017-09-20T16:43:38.736Z,10152
2017-09-20T16:43:51.619Z,10172
2017-09-20T16:44:03.929Z,10184
2017-09-20T16:44:15.687Z,10164
2017-09-20T16:44:28.515Z,10180
2017-09-20T16:44:40.822Z,10188
2017-09-20T16:44:54.192Z,10188
2017-09-20T16:45:07.040Z,10064
2017-09-20T16:45:19.366Z,10204
2017-09-20T16:45:32.276Z,10212
2017-09-20T16:45:45.634Z,10156
2017-09-20T16:45:58.990Z,10160
2017-09-20T16:46:11.299Z,10160
2017-09-20T16:46:24.665Z,10132
2017-09-20T16:46:37.511Z,10108
2017-09-20T16:46:49.874Z,10080
2017-09-20T16:47:03.228Z,10072
2017-09-20T16:47:16.592Z,10060
2017-09-20T16:47:28.927Z,10020
2017-09-20T16:47:41.192Z,10032
2017-09-20T16:47:55.880Z,9992
2017-09-20T16:48:09.334Z,10012
2017-09-20T16:48:22.196Z,9976
2017-09-20T16:48:35.608Z,9960
2017-09-20T16:48:48.473Z,9972
2017-09-20T16:49:01.861Z,9948
2017-09-20T16:49:14.690Z,9960
2017-09-20T16:49:28.076Z,9940
2017-09-20T16:49:41.452Z,9916
2017-09-20T16:49:54.325Z,9936
2017-09-20T16:50:06.688Z,9956
2017-09-20T16:50:20.048Z,9936
2017-09-20T16:50:32.933Z,9920
2017-09-20T16:50:45.796Z,9944
2017-09-20T16:50:59.166Z,9892
2017-09-20T16:51:11.477Z,9896
2017-09-20T16:51:24.607Z,9888
2017-09-20T16:51:38.018Z,9908
2017-09-20T16:51:50.334Z,9824
2017-09-20T16:52:03.168Z,9924
2017-09-20T16:52:16.583Z,9804
2017-09-20T16:52:29.982Z,9812
2017-09-20T16:52:42.813Z,9784
2017-09-20T16:52:55.661Z,9724
2017-09-20T16:53:08.542Z,9752
2017-09-20T16:53:21.451Z,9808
2017-09-20T16:53:34.361Z,9712
2017-09-20T16:53:46.703Z,9720
2017-09-20T16:54:00.079Z,9768
2017-09-20T16:54:12.413Z,9664
2017-09-20T16:54:25.798Z,9552
2017-09-20T16:54:39.229Z,9524
2017-09-20T16:54:52.084Z,9604
2017-09-20T16:55:05.473Z,9540
2017-09-20T16:55:17.819Z,9556
2017-09-20T16:55:30.673Z,9744
2017-09-20T16:55:44.270Z,9828
2017-09-20T16:55:56.660Z,9920
2017-09-20T16:56:10.101Z,9988
2017-09-20T16:56:23.133Z,10068
2017-09-20T16:56:35.991Z,10208
2017-09-20T16:56:49.318Z,10184
2017-09-20T16:57:02.752Z,10212
2017-09-20T16:57:15.114Z,10196
2017-09-20T16:57:28.418Z,10168
2017-09-20T16:57:41.274Z,10164
2017-09-20T16:57:54.223Z,10176
2017-09-20T16:58:06.526Z,10180
2017-09-20T16:58:19.925Z,10184
2017-09-20T16:58:33.341Z,10236
2017-09-20T16:58:46.735Z,10260
2017-09-20T16:59:00.152Z,10284
2017-09-20T16:59:13.525Z,10292
2017-09-20T16:59:26.903Z,10280
2017-09-20T16:59:40.243Z,10236
2017-09-20T16:59:53.600Z,10264
2017-09-20T17:00:06.453Z,10272
2017-09-20T17:00:18.817Z,10280
2017-09-20T17:00:32.212Z,10284
2017-09-20T17:00:45.601Z,10276
2017-09-20T17:00:57.959Z,10256
2017-09-20T17:01:11.332Z,10312
2017-09-20T17:01:24.199Z,10328
2017-09-20T17:01:37.055Z,10252
2017-09-20T17:01:50.447Z,10232
2017-09-20T17:02:03.840Z,10220
2017-09-20T17:02:17.276Z,10224
2017-09-20T17:02:28.517Z,10264
2017-09-20T17:02:41.907Z,10192
2017-09-20T17:02:55.258Z,10188
2017-09-20T17:03:08.117Z,10116
2017-09-20T17:03:21.494Z,10232
2017-09-20T17:03:34.336Z,10204
2017-09-20T17:03:47.700Z,10144
2017-09-20T17:04:01.056Z,10140
2017-09-20T17:04:13.903Z,10048
2017-09-20T17:04:26.796Z,10024
2017-09-20T17:04:39.663Z,10008
2017-09-20T17:04:52.539Z,9996
2017-09-20T17:05:04.861Z,9972
2017-09-20T17:05:17.706Z,10004
2017-09-20T17:05:30.627Z,9944
2017-09-20T17:05:42.970Z,9920
2017-09-20T17:05:56.387Z,9920
2017-09-20T17:06:09.742Z,9920
2017-09-20T17:06:23.106Z,9960
2017-09-20T17:06:35.969Z,9920
2017-09-20T17:06:48.787Z,9920
2017-09-20T17:07:02.186Z,9964
2017-09-20T17:07:15.079Z,10028
2017-09-20T17:07:28.453Z,9956
2017-09-20T17:07:40.818Z,9972
2017-09-20T17:07:53.728Z,9940
2017-09-20T17:08:07.067Z,9896
2017-09-20T17:08:19.967Z,9844
2017-09-20T17:08:33.342Z,9884
2017-09-20T17:08:46.761Z,9868
2017-09-20T17:08:59.654Z,9888
2017-09-20T17:09:12.517Z,9856
2017-09-20T17:09:25.925Z,9852
2017-09-20T17:09:38.766Z,9844
2017-09-20T17:09:51.580Z,9876
2017-09-20T17:10:04.941Z,9876
2017-09-20T17:10:18.317Z,9864
2017-09-20T17:10:31.167Z,9884
2017-09-20T17:10:44.065Z,9856
2017-09-20T17:10:56.923Z,9876
2017-09-20T17:11:10.284Z,9880
2017-09-20T17:11:22.751Z,9876
2017-09-20T17:11:36.117Z,9856
2017-09-20T17:11:48.460Z,9932
2017-09-20T17:12:00.790Z,9848
2017-09-20T17:12:14.219Z,9932
2017-09-20T17:12:27.102Z,9940
2017-09-20T17:12:39.963Z,9884
2017-09-20T17:12:52.278Z,9904
2017-09-20T17:13:05.679Z,9924
2017-09-20T17:13:19.048Z,9916
2017-09-20T17:13:32.462Z,9892
2017-09-20T17:13:44.286Z,9944
2017-09-20T17:13:56.583Z,9924
2017-09-20T17:14:09.418Z,9920
2017-09-20T17:14:22.237Z,9980
2017-09-20T17:14:35.073Z,9956
2017-09-20T17:14:47.897Z,9976
2017-09-20T17:15:01.305Z,9948
2017-09-20T17:15:14.109Z,9968
2017-09-20T17:15:26.980Z,9944
2017-09-20T17:15:40.347Z,9992
2017-09-20T17:15:53.218Z,9856
2017-09-20T17:16:06.659Z,9908
2017-09-20T17:16:19.548Z,9856
2017-09-20T17:16:33.174Z,9904
2017-09-20T17:16:46.553Z,9864
2017-09-20T17:16:59.873Z,9872
2017-09-20T17:17:13.272Z,9836
2017-09-20T17:17:25.603Z,9720
2017-09-20T17:17:38.500Z,9700
2017-09-20T17:17:51.926Z,9776
2017-09-20T17:18:05.312Z,9696
2017-09-20T17:18:18.656Z,9680
2017-09-20T17:18:31.476Z,9660
2017-09-20T17:18:44.350Z,9656
2017-09-20T17:18:57.761Z,9708
2017-09-20T17:19:11.156Z,9640
2017-09-20T17:19:24.032Z,9660
2017-09-20T17:19:36.932Z,9676
2017-09-20T17:19:49.297Z,9632
2017-09-20T17:20:02.189Z,9816
2017-09-20T17:20:15.028Z,9696
2017-09-20T17:20:27.951Z,9652
2017-09-20T17:20:40.784Z,9708
2017-09-20T17:20:54.114Z,9728
2017-09-20T17:21:07.475Z,9688
2017-09-20T17:21:20.380Z,9688
2017-09-20T17:21:33.526Z,9708
2017-09-20T17:21:46.356Z,9680
2017-09-20T17:21:59.739Z,9748
2017-09-20T17:22:12.592Z,9756
2017-09-20T17:22:26.003Z,9764
2017-09-20T17:22:38.344Z,9716
2017-09-20T17:22:51.216Z,9752
2017-09-20T17:23:04.575Z,9736
2017-09-20T17:23:17.918Z,9676
2017-09-20T17:23:31.282Z,9748
2017-09-20T17:23:44.109Z,9676
2017-09-20T17:23:57.519Z,9676
2017-09-20T17:24:10.384Z,9632
2017-09-20T17:24:22.749Z,9612
2017-09-20T17:24:35.547Z,9632
2017-09-20T17:24:47.907Z,9616
2017-09-20T17:25:00.764Z,9580
2017-09-20T17:25:14.205Z,9512
2017-09-20T17:25:27.032Z,9500
2017-09-20T17:25:39.932Z,9540
2017-09-20T17:25:53.248Z,9444
2017-09-20T17:26:05.570Z,9480
2017-09-20T17:26:18.968Z,9444
2017-09-20T17:26:32.383Z,9432
2017-09-20T17:26:44.737Z,9320
2017-09-20T17:26:58.092Z,9424
2017-09-20T17:27:10.449Z,9396
2017-09-20T17:27:23.338Z,9384
2017-09-20T17:27:36.742Z,9352
2017-09-20T17:27:49.293Z,9296
2017-09-20T17:28:02.141Z,9240
2017-09-20T17:28:14.995Z,9296
2017-09-20T17:28:28.363Z,9316
2017-09-20T17:28:41.226Z,9344
2017-09-20T17:28:52.953Z,9376
2017-09-20T17:29:05.804Z,9392
2017-09-20T17:29:19.165Z,9432
2017-09-20T17:29:32.017Z,9504
2017-09-20T17:29:44.903Z,9480
2017-09-20T17:29:58.248Z,9476
2017-09-20T17:30:11.089Z,9484
2017-09-20T17:30:23.411Z,9496
2017-09-20T17:30:35.770Z,9556
2017-09-20T17:30:48.671Z,9560
2017-09-20T17:31:02.071Z,9540
2017-09-20T17:31:14.933Z,9544
2017-09-20T17:31:27.779Z,9536
2017-09-20T17:31:41.166Z,9544
2017-09-20T17:31:53.962Z,9528
2017-09-20T17:32:06.836Z,9524
2017-09-20T17:32:19.177Z,9544
2017-09-20T17:32:32.025Z,9612
2017-09-20T17:32:45.438Z,9560
2017-09-20T17:32:57.783Z,9516
2017-09-20T17:33:10.684Z,9452
2017-09-20T17:33:22.978Z,9464
2017-09-20T17:33:35.279Z,9464
2017-09-20T17:33:48.690Z,9444
2017-09-20T17:34:00.994Z,9396
2017-09-20T17:34:14.346Z,9400
2017-09-20T17:34:27.150Z,9352
2017-09-20T17:34:40.544Z,9348
2017-09-20T17:34:53.395Z,9344
2017-09-20T17:35:06.746Z,9312
2017-09-20T17:35:19.605Z,9300
2017-09-20T17:35:31.949Z,9276
2017-09-20T17:35:44.250Z,9268
2017-09-20T17:35:59.323Z,9388
2017-09-20T17:36:12.147Z,9256
2017-09-20T17:36:24.995Z,9232
2017-09-20T17:36:38.354Z,9224
2017-09-20T17:36:51.713Z,9252
2017-09-20T17:37:05.129Z,9248
2017-09-20T17:37:18.526Z,9228
2017-09-20T17:37:31.899Z,9208
2017-09-20T17:37:45.275Z,9208
2017-09-20T17:37:58.728Z,9208
2017-09-20T17:38:11.042Z,9204
2017-09-20T17:38:23.911Z,9192
2017-09-20T17:38:36.232Z,9204
2017-09-20T17:38:49.112Z,9220
2017-09-20T17:39:01.937Z,9236
2017-09-20T17:39:14.775Z,9196
2017-09-20T17:39:27.076Z,9264
2017-09-20T17:39:38.903Z,9332
2017-09-20T17:39:51.756Z,9160
2017-09-20T17:40:05.144Z,9164
2017-09-20T17:40:18.509Z,9236
2017-09-20T17:40:31.897Z,9220
2017-09-20T17:40:44.778Z,9176
2017-09-20T17:40:57.127Z,9148
2017-09-20T17:41:09.975Z,9028
2017-09-20T17:41:23.360Z,9044
2017-09-20T17:41:36.763Z,8976
2017-09-20T17:41:49.144Z,8984